sensor_id;sensor_type;location;lat;lon;timestamp;P1;durP1;ratioP1;P2;durP2;ratioP2
4732;SDS011;2380;53.668;10.008;2023-01-28T00:00:18;5.00;;;2.60;;
4732;SDS011;2380;53.668;10.008;2023-01-28T00:02:48;5.85;;;2.67;;
4732;SDS011;2380;53.668;10.008;2023-01-28T00:05:17;3.57;;;1.90;;
4732;SDS011;2380;53.668;10.008;2023-01-28T00:07:50;6.30;;;2.60;;
4732;SDS011;2380;53.668;10.008;2023-01-28T00:10:20;6.60;;;2.57;;
4732;SDS011;2380;53.668;10.008;2023-01-28T00:12:49;5.10;;;2.97;;
4732;SDS011;2380;53.668;10.008;2023-01-28T00:15:19;6.20;;;2.80;;
4732;SDS011;2380;53.668;10.008;2023-01-28T00:17:50;8.30;;;3.40;;
4732;SDS011;2380;53.668;10.008;2023-01-28T00:20:20;5.57;;;2.50;;
4732;SDS011;2380;53.668;10.008;2023-01-28T00:22:52;4.80;;;2.50;;
4732;SDS011;2380;53.668;10.008;2023-01-28T00:25:21;4.90;;;2.60;;
4732;SDS011;2380;53.668;10.008;2023-01-28T00:27:51;4.77;;;2.13;;
4732;SDS011;2380;53.668;10.008;2023-01-28T00:30:20;4.20;;;2.73;;
4732;SDS011;2380;53.668;10.008;2023-01-28T00:32:50;4.35;;;2.70;;
4732;SDS011;2380;53.668;10.008;2023-01-28T00:35:22;9.87;;;2.63;;
4732;SDS011;2380;53.668;10.008;2023-01-28T00:37:54;9.03;;;3.40;;
4732;SDS011;2380;53.668;10.008;2023-01-28T00:40:23;6.90;;;2.80;;
4732;SDS011;2380;53.668;10.008;2023-01-28T00:42:53;7.20;;;2.73;;
4732;SDS011;2380;53.668;10.008;2023-01-28T00:45:22;7.00;;;3.10;;
4732;SDS011;2380;53.668;10.008;2023-01-28T00:47:51;9.85;;;3.20;;
4732;SDS011;2380;53.668;10.008;2023-01-28T00:50:21;6.77;;;3.40;;
4732;SDS011;2380;53.668;10.008;2023-01-28T00:52:50;7.73;;;3.80;;
4732;SDS011;2380;53.668;10.008;2023-01-28T00:55:22;15.55;;;7.13;;
4732;SDS011;2380;53.668;10.008;2023-01-28T00:57:52;8.20;;;3.63;;
4732;SDS011;2380;53.668;10.008;2023-01-28T01:00:21;6.70;;;3.20;;
4732;SDS011;2380;53.668;10.008;2023-01-28T01:02:52;7.67;;;3.53;;
4732;SDS011;2380;53.668;10.008;2023-01-28T01:05:22;5.27;;;3.07;;
4732;SDS011;2380;53.668;10.008;2023-01-28T01:07:51;6.88;;;3.40;;
4732;SDS011;2380;53.668;10.008;2023-01-28T01:10:23;6.30;;;3.33;;
4732;SDS011;2380;53.668;10.008;2023-01-28T01:12:53;4.87;;;2.90;;
4732;SDS011;2380;53.668;10.008;2023-01-28T01:15:23;5.83;;;2.90;;
4732;SDS011;2380;53.668;10.008;2023-01-28T01:17:52;6.40;;;3.03;;
4732;SDS011;2380;53.668;10.008;2023-01-28T01:20:23;8.40;;;3.50;;
4732;SDS011;2380;53.668;10.008;2023-01-28T01:22:54;8.43;;;3.80;;
4732;SDS011;2380;53.668;10.008;2023-01-28T01:25:27;7.78;;;3.70;;
4732;SDS011;2380;53.668;10.008;2023-01-28T01:27:56;10.57;;;3.83;;
4732;SDS011;2380;53.668;10.008;2023-01-28T01:30:25;3.70;;;1.73;;
4732;SDS011;2380;53.668;10.008;2023-01-28T01:32:55;4.82;;;1.70;;
4732;SDS011;2380;53.668;10.008;2023-01-28T01:35:25;5.57;;;2.28;;
4732;SDS011;2380;53.668;10.008;2023-01-28T01:37:55;5.57;;;3.10;;
4732;SDS011;2380;53.668;10.008;2023-01-28T01:40:27;9.10;;;3.30;;
4732;SDS011;2380;53.668;10.008;2023-01-28T01:42:57;5.45;;;2.88;;
4732;SDS011;2380;53.668;10.008;2023-01-28T01:45:26;8.82;;;3.13;;
4732;SDS011;2380;53.668;10.008;2023-01-28T01:47:58;6.93;;;2.53;;
4732;SDS011;2380;53.668;10.008;2023-01-28T01:50:31;4.18;;;2.20;;
4732;SDS011;2380;53.668;10.008;2023-01-28T01:53:03;6.27;;;2.40;;
4732;SDS011;2380;53.668;10.008;2023-01-28T01:55:38;4.38;;;2.40;;
4732;SDS011;2380;53.668;10.008;2023-01-28T01:58:10;5.80;;;2.60;;
4732;SDS011;2380;53.668;10.008;2023-01-28T02:00:44;5.38;;;2.55;;
4732;SDS011;2380;53.668;10.008;2023-01-28T02:03:14;6.60;;;2.63;;
4732;SDS011;2380;53.668;10.008;2023-01-28T02:05:45;5.10;;;3.00;;
4732;SDS011;2380;53.668;10.008;2023-01-28T02:08:17;3.87;;;2.43;;
4732;SDS011;2380;53.668;10.008;2023-01-28T02:10:54;7.17;;;3.03;;
4732;SDS011;2380;53.668;10.008;2023-01-28T02:13:26;6.95;;;3.30;;
4732;SDS011;2380;53.668;10.008;2023-01-28T02:15:57;5.50;;;2.88;;
4732;SDS011;2380;53.668;10.008;2023-01-28T02:18:28;6.93;;;2.97;;
4732;SDS011;2380;53.668;10.008;2023-01-28T02:24:03;5.97;;;3.00;;
4732;SDS011;2380;53.668;10.008;2023-01-28T02:26:46;7.97;;;3.17;;
4732;SDS011;2380;53.668;10.008;2023-01-28T02:29:24;8.97;;;2.53;;
4732;SDS011;2380;53.668;10.008;2023-01-28T02:31:57;8.90;;;2.80;;
4732;SDS011;2380;53.668;10.008;2023-01-28T02:34:33;6.90;;;2.33;;
4732;SDS011;2380;53.668;10.008;2023-01-28T02:37:08;7.85;;;2.80;;
4732;SDS011;2380;53.668;10.008;2023-01-28T02:39:43;6.65;;;2.45;;
4732;SDS011;2380;53.668;10.008;2023-01-28T02:42:16;4.53;;;2.70;;
4732;SDS011;2380;53.668;10.008;2023-01-28T02:44:49;7.50;;;3.57;;
4732;SDS011;2380;53.668;10.008;2023-01-28T02:47:18;4.50;;;2.87;;
4732;SDS011;2380;53.668;10.008;2023-01-28T02:50:01;4.70;;;2.73;;
4732;SDS011;2380;53.668;10.008;2023-01-28T02:52:38;5.40;;;3.03;;
4732;SDS011;2380;53.668;10.008;2023-01-28T02:55:29;4.28;;;2.50;;
4732;SDS011;2380;53.668;10.008;2023-01-28T02:58:04;6.63;;;2.40;;
4732;SDS011;2380;53.668;10.008;2023-01-28T03:00:43;10.37;;;2.70;;
4732;SDS011;2380;53.668;10.008;2023-01-28T03:03:17;5.38;;;2.28;;
4732;SDS011;2380;53.668;10.008;2023-01-28T03:05:51;4.60;;;2.50;;
4732;SDS011;2380;53.668;10.008;2023-01-28T03:08:33;5.47;;;2.30;;
4732;SDS011;2380;53.668;10.008;2023-01-28T03:11:17;4.10;;;2.45;;
4732;SDS011;2380;53.668;10.008;2023-01-28T03:13:59;7.80;;;3.23;;
4732;SDS011;2380;53.668;10.008;2023-01-28T03:16:45;5.13;;;2.70;;
4732;SDS011;2380;53.668;10.008;2023-01-28T03:19:27;4.87;;;2.50;;
4732;SDS011;2380;53.668;10.008;2023-01-28T03:22:08;4.60;;;2.80;;
4732;SDS011;2380;53.668;10.008;2023-01-28T03:24:50;8.83;;;3.07;;
4732;SDS011;2380;53.668;10.008;2023-01-28T03:27:34;5.40;;;3.07;;
4732;SDS011;2380;53.668;10.008;2023-01-28T03:30:21;6.60;;;3.07;;
4732;SDS011;2380;53.668;10.008;2023-01-28T03:33:09;9.27;;;2.60;;
4732;SDS011;2380;53.668;10.008;2023-01-28T03:35:51;5.73;;;3.07;;
4732;SDS011;2380;53.668;10.008;2023-01-28T03:38:33;6.33;;;2.90;;
4732;SDS011;2380;53.668;10.008;2023-01-28T03:41:08;4.73;;;2.80;;
4732;SDS011;2380;53.668;10.008;2023-01-28T03:43:38;8.10;;;3.60;;
4732;SDS011;2380;53.668;10.008;2023-01-28T03:46:10;5.70;;;2.97;;
4732;SDS011;2380;53.668;10.008;2023-01-28T03:48:42;8.40;;;2.73;;
4732;SDS011;2380;53.668;10.008;2023-01-28T03:51:12;5.30;;;3.30;;
4732;SDS011;2380;53.668;10.008;2023-01-28T03:53:43;4.50;;;2.67;;
4732;SDS011;2380;53.668;10.008;2023-01-28T03:56:12;7.13;;;2.80;;
4732;SDS011;2380;53.668;10.008;2023-01-28T03:58:43;7.30;;;2.87;;
4732;SDS011;2380;53.668;10.008;2023-01-28T04:01:22;10.47;;;2.40;;
4732;SDS011;2380;53.668;10.008;2023-01-28T04:03:54;5.20;;;2.90;;
4732;SDS011;2380;53.668;10.008;2023-01-28T04:06:24;6.80;;;2.80;;
4732;SDS011;2380;53.668;10.008;2023-01-28T04:08:54;7.03;;;2.80;;
4732;SDS011;2380;53.668;10.008;2023-01-28T04:11:24;5.73;;;2.90;;
4732;SDS011;2380;53.668;10.008;2023-01-28T04:13:54;5.47;;;2.50;;
4732;SDS011;2380;53.668;10.008;2023-01-28T04:16:24;6.00;;;2.93;;
4732;SDS011;2380;53.668;10.008;2023-01-28T04:18:56;11.03;;;3.73;;
4732;SDS011;2380;53.668;10.008;2023-01-28T04:21:26;6.57;;;3.30;;
4732;SDS011;2380;53.668;10.008;2023-01-28T04:23:55;6.90;;;3.43;;
4732;SDS011;2380;53.668;10.008;2023-01-28T04:26:25;5.10;;;3.10;;
4732;SDS011;2380;53.668;10.008;2023-01-28T04:28:54;7.03;;;2.77;;
4732;SDS011;2380;53.668;10.008;2023-01-28T04:31:23;11.67;;;3.30;;
4732;SDS011;2380;53.668;10.008;2023-01-28T04:33:55;6.17;;;2.93;;
4732;SDS011;2380;53.668;10.008;2023-01-28T04:36:25;6.70;;;3.20;;
4732;SDS011;2380;53.668;10.008;2023-01-28T04:38:55;5.05;;;2.78;;
4732;SDS011;2380;53.668;10.008;2023-01-28T04:41:24;9.30;;;3.13;;
4732;SDS011;2380;53.668;10.008;2023-01-28T04:43:54;9.15;;;4.10;;
4732;SDS011;2380;53.668;10.008;2023-01-28T04:46:23;5.05;;;2.90;;
4732;SDS011;2380;53.668;10.008;2023-01-28T04:48:55;9.38;;;3.53;;
4732;SDS011;2380;53.668;10.008;2023-01-28T04:51:25;9.38;;;3.28;;
4732;SDS011;2380;53.668;10.008;2023-01-28T04:53:54;12.53;;;3.77;;
4732;SDS011;2380;53.668;10.008;2023-01-28T04:56:23;8.90;;;3.22;;
4732;SDS011;2380;53.668;10.008;2023-01-28T04:58:53;8.90;;;3.63;;
4732;SDS011;2380;53.668;10.008;2023-01-28T05:01:22;9.55;;;3.75;;
4732;SDS011;2380;53.668;10.008;2023-01-28T05:03:52;6.25;;;3.20;;
4732;SDS011;2380;53.668;10.008;2023-01-28T05:06:24;4.65;;;3.22;;
4732;SDS011;2380;53.668;10.008;2023-01-28T05:08:54;7.03;;;3.30;;
4732;SDS011;2380;53.668;10.008;2023-01-28T05:11:23;7.20;;;3.40;;
4732;SDS011;2380;53.668;10.008;2023-01-28T05:13:53;7.70;;;3.42;;
4732;SDS011;2380;53.668;10.008;2023-01-28T05:16:23;9.20;;;3.72;;
4732;SDS011;2380;53.668;10.008;2023-01-28T05:18:52;7.35;;;3.70;;
4732;SDS011;2380;53.668;10.008;2023-01-28T05:21:21;5.25;;;3.38;;
4732;SDS011;2380;53.668;10.008;2023-01-28T05:23:54;7.57;;;3.80;;
4732;SDS011;2380;53.668;10.008;2023-01-28T05:26:24;6.57;;;3.50;;
4732;SDS011;2380;53.668;10.008;2023-01-28T05:28:53;6.95;;;3.47;;
4732;SDS011;2380;53.668;10.008;2023-01-28T05:31:22;12.23;;;4.13;;
4732;SDS011;2380;53.668;10.008;2023-01-28T05:33:52;7.38;;;3.60;;
4732;SDS011;2380;53.668;10.008;2023-01-28T05:36:21;9.13;;;3.70;;
4732;SDS011;2380;53.668;10.008;2023-01-28T05:38:54;5.07;;;3.40;;
4732;SDS011;2380;53.668;10.008;2023-01-28T05:41:23;7.10;;;3.70;;
4732;SDS011;2380;53.668;10.008;2023-01-28T05:43:53;7.93;;;4.30;;
4732;SDS011;2380;53.668;10.008;2023-01-28T05:46:22;6.43;;;3.65;;
4732;SDS011;2380;53.668;10.008;2023-01-28T05:48:52;7.30;;;3.95;;
4732;SDS011;2380;53.668;10.008;2023-01-28T05:51:24;8.07;;;4.82;;
4732;SDS011;2380;53.668;10.008;2023-01-28T05:53:54;7.70;;;4.25;;
4732;SDS011;2380;53.668;10.008;2023-01-28T05:56:23;9.73;;;4.88;;
4732;SDS011;2380;53.668;10.008;2023-01-28T05:58:53;6.68;;;4.20;;
4732;SDS011;2380;53.668;10.008;2023-01-28T06:01:22;7.60;;;4.35;;
4732;SDS011;2380;53.668;10.008;2023-01-28T06:03:52;9.10;;;4.88;;
4732;SDS011;2380;53.668;10.008;2023-01-28T06:06:21;10.38;;;4.60;;
4732;SDS011;2380;53.668;10.008;2023-01-28T06:08:53;8.82;;;3.90;;
4732;SDS011;2380;53.668;10.008;2023-01-28T06:11:22;7.25;;;4.55;;
4732;SDS011;2380;53.668;10.008;2023-01-28T06:13:52;9.55;;;4.38;;
4732;SDS011;2380;53.668;10.008;2023-01-28T06:16:22;7.75;;;3.90;;
4732;SDS011;2380;53.668;10.008;2023-01-28T06:18:51;12.50;;;4.65;;
4732;SDS011;2380;53.668;10.008;2023-01-28T06:21:21;7.75;;;4.50;;
4732;SDS011;2380;53.668;10.008;2023-01-28T06:23:53;7.25;;;4.55;;
4732;SDS011;2380;53.668;10.008;2023-01-28T06:26:22;9.43;;;5.80;;
4732;SDS011;2380;53.668;10.008;2023-01-28T06:28:52;9.30;;;4.80;;
4732;SDS011;2380;53.668;10.008;2023-01-28T06:31:21;12.90;;;5.30;;
4732;SDS011;2380;53.668;10.008;2023-01-28T06:33:51;10.90;;;5.60;;
4732;SDS011;2380;53.668;10.008;2023-01-28T06:36:20;7.85;;;4.55;;
4732;SDS011;2380;53.668;10.008;2023-01-28T06:38:52;10.18;;;5.80;;
4732;SDS011;2380;53.668;10.008;2023-01-28T06:41:22;10.90;;;5.60;;
4732;SDS011;2380;53.668;10.008;2023-01-28T06:43:52;10.07;;;6.10;;
4732;SDS011;2380;53.668;10.008;2023-01-28T06:46:21;12.05;;;6.25;;
4732;SDS011;2380;53.668;10.008;2023-01-28T06:48:51;11.68;;;6.22;;
4732;SDS011;2380;53.668;10.008;2023-01-28T06:51:20;12.02;;;6.88;;
4732;SDS011;2380;53.668;10.008;2023-01-28T06:53:49;10.43;;;6.50;;
4732;SDS011;2380;53.668;10.008;2023-01-28T06:56:21;11.10;;;6.32;;
4732;SDS011;2380;53.668;10.008;2023-01-28T06:58:51;15.18;;;7.55;;
4732;SDS011;2380;53.668;10.008;2023-01-28T07:01:21;15.80;;;7.95;;
4732;SDS011;2380;53.668;10.008;2023-01-28T07:03:50;9.60;;;6.25;;
4732;SDS011;2380;53.668;10.008;2023-01-28T07:06:20;11.07;;;7.00;;
4732;SDS011;2380;53.668;10.008;2023-01-28T07:08:49;13.00;;;7.07;;
4732;SDS011;2380;53.668;10.008;2023-01-28T07:11:21;10.93;;;7.43;;
4732;SDS011;2380;53.668;10.008;2023-01-28T07:13:51;13.40;;;6.72;;
4732;SDS011;2380;53.668;10.008;2023-01-28T07:16:20;14.18;;;7.72;;
4732;SDS011;2380;53.668;10.008;2023-01-28T07:18:50;14.07;;;7.63;;
4732;SDS011;2380;53.668;10.008;2023-01-28T07:21:19;15.57;;;7.57;;
4732;SDS011;2380;53.668;10.008;2023-01-28T07:23:49;12.35;;;7.90;;
4732;SDS011;2380;53.668;10.008;2023-01-28T07:26:18;16.15;;;8.20;;
4732;SDS011;2380;53.668;10.008;2023-01-28T07:28:51;13.48;;;7.78;;
4732;SDS011;2380;53.668;10.008;2023-01-28T07:31:21;11.80;;;7.38;;
4732;SDS011;2380;53.668;10.008;2023-01-28T07:33:50;16.10;;;8.73;;
4732;SDS011;2380;53.668;10.008;2023-01-28T07:36:20;12.00;;;8.15;;
4732;SDS011;2380;53.668;10.008;2023-01-28T07:38:49;14.75;;;8.05;;
4732;SDS011;2380;53.668;10.008;2023-01-28T07:41:19;15.82;;;9.63;;
4732;SDS011;2380;53.668;10.008;2023-01-28T07:43:51;16.60;;;8.82;;
4732;SDS011;2380;53.668;10.008;2023-01-28T07:46:21;14.65;;;8.10;;
4732;SDS011;2380;53.668;10.008;2023-01-28T07:48:50;15.80;;;8.50;;
4732;SDS011;2380;53.668;10.008;2023-01-28T07:51:20;16.40;;;8.85;;
4732;SDS011;2380;53.668;10.008;2023-01-28T07:53:49;19.05;;;8.60;;
4732;SDS011;2380;53.668;10.008;2023-01-28T07:56:18;14.45;;;8.13;;
4732;SDS011;2380;53.668;10.008;2023-01-28T07:58:51;13.57;;;8.18;;
4732;SDS011;2380;53.668;10.008;2023-01-28T08:01:20;16.48;;;8.48;;
4732;SDS011;2380;53.668;10.008;2023-01-28T08:03:49;15.93;;;8.45;;
4732;SDS011;2380;53.668;10.008;2023-01-28T08:06:19;15.38;;;8.45;;
4732;SDS011;2380;53.668;10.008;2023-01-28T08:08:49;15.35;;;8.85;;
4732;SDS011;2380;53.668;10.008;2023-01-28T08:11:18;16.45;;;9.20;;
4732;SDS011;2380;53.668;10.008;2023-01-28T08:13:51;20.23;;;10.55;;
4732;SDS011;2380;53.668;10.008;2023-01-28T08:16:20;18.83;;;9.65;;
4732;SDS011;2380;53.668;10.008;2023-01-28T08:18:50;18.23;;;9.40;;
4732;SDS011;2380;53.668;10.008;2023-01-28T08:21:20;26.15;;;12.43;;
4732;SDS011;2380;53.668;10.008;2023-01-28T08:23:50;26.60;;;11.55;;
4732;SDS011;2380;53.668;10.008;2023-01-28T08:26:20;30.75;;;11.75;;
4732;SDS011;2380;53.668;10.008;2023-01-28T08:28:52;18.48;;;9.65;;
4732;SDS011;2380;53.668;10.008;2023-01-28T08:31:21;28.73;;;12.13;;
4732;SDS011;2380;53.668;10.008;2023-01-28T08:33:51;15.60;;;8.90;;
4732;SDS011;2380;53.668;10.008;2023-01-28T08:36:20;18.65;;;8.82;;
4732;SDS011;2380;53.668;10.008;2023-01-28T08:38:50;47.55;;;15.85;;
4732;SDS011;2380;53.668;10.008;2023-01-28T08:41:21;17.08;;;9.68;;
4732;SDS011;2380;53.668;10.008;2023-01-28T08:43:53;42.65;;;18.42;;
4732;SDS011;2380;53.668;10.008;2023-01-28T08:46:23;25.00;;;12.77;;
4732;SDS011;2380;53.668;10.008;2023-01-28T08:48:53;28.55;;;12.77;;
4732;SDS011;2380;53.668;10.008;2023-01-28T08:51:22;18.88;;;9.32;;
4732;SDS011;2380;53.668;10.008;2023-01-28T08:53:51;18.63;;;9.93;;
4732;SDS011;2380;53.668;10.008;2023-01-28T08:56:21;42.33;;;14.70;;
4732;SDS011;2380;53.668;10.008;2023-01-28T08:58:54;21.60;;;10.43;;
4732;SDS011;2380;53.668;10.008;2023-01-28T09:01:23;19.33;;;9.55;;
4732;SDS011;2380;53.668;10.008;2023-01-28T09:03:54;17.95;;;8.50;;
4732;SDS011;2380;53.668;10.008;2023-01-28T09:06:24;20.40;;;9.50;;
4732;SDS011;2380;53.668;10.008;2023-01-28T09:08:55;16.20;;;9.40;;
4732;SDS011;2380;53.668;10.008;2023-01-28T09:11:25;16.27;;;9.75;;
4732;SDS011;2380;53.668;10.008;2023-01-28T09:13:58;16.23;;;9.02;;
4732;SDS011;2380;53.668;10.008;2023-01-28T09:16:28;15.98;;;8.82;;
4732;SDS011;2380;53.668;10.008;2023-01-28T09:18:57;14.07;;;8.23;;
4732;SDS011;2380;53.668;10.008;2023-01-28T09:21:27;13.35;;;8.40;;
4732;SDS011;2380;53.668;10.008;2023-01-28T09:23:56;13.80;;;8.07;;
4732;SDS011;2380;53.668;10.008;2023-01-28T09:26:26;14.65;;;8.43;;
4732;SDS011;2380;53.668;10.008;2023-01-28T09:28:58;16.67;;;9.55;;
4732;SDS011;2380;53.668;10.008;2023-01-28T09:31:27;17.02;;;9.07;;
4732;SDS011;2380;53.668;10.008;2023-01-28T09:33:57;15.02;;;8.40;;
4732;SDS011;2380;53.668;10.008;2023-01-28T09:36:26;18.08;;;8.05;;
4732;SDS011;2380;53.668;10.008;2023-01-28T09:38:56;19.52;;;8.90;;
4732;SDS011;2380;53.668;10.008;2023-01-28T09:41:26;16.15;;;8.30;;
4732;SDS011;2380;53.668;10.008;2023-01-28T09:44:05;16.10;;;8.75;;
4732;SDS011;2380;53.668;10.008;2023-01-28T09:46:38;15.57;;;6.70;;
4732;SDS011;2380;53.668;10.008;2023-01-28T09:49:13;16.42;;;8.55;;
4732;SDS011;2380;53.668;10.008;2023-01-28T09:51:48;15.35;;;8.30;;
4732;SDS011;2380;53.668;10.008;2023-01-28T09:54:23;15.18;;;8.77;;
4732;SDS011;2380;53.668;10.008;2023-01-28T09:57:06;17.00;;;10.10;;
4732;SDS011;2380;53.668;10.008;2023-01-28T09:59:43;12.23;;;7.50;;
4732;SDS011;2380;53.668;10.008;2023-01-28T10:05:09;15.80;;;8.35;;
4732;SDS011;2380;53.668;10.008;2023-01-28T10:07:47;12.70;;;7.55;;
4732;SDS011;2380;53.668;10.008;2023-01-28T10:10:25;14.50;;;7.45;;
4732;SDS011;2380;53.668;10.008;2023-01-28T10:13:01;13.38;;;7.78;;
4732;SDS011;2380;53.668;10.008;2023-01-28T10:18:26;18.05;;;7.50;;
4732;SDS011;2380;53.668;10.008;2023-01-28T10:21:01;9.48;;;5.47;;
4732;SDS011;2380;53.668;10.008;2023-01-28T10:23:38;16.73;;;6.72;;
4732;SDS011;2380;53.668;10.008;2023-01-28T10:26:12;16.05;;;8.15;;
4732;SDS011;2380;53.668;10.008;2023-01-28T10:28:46;15.27;;;8.82;;
4732;SDS011;2380;53.668;10.008;2023-01-28T10:31:26;19.30;;;8.32;;
4732;SDS011;2380;53.668;10.008;2023-01-28T10:33:59;13.15;;;7.25;;
4732;SDS011;2380;53.668;10.008;2023-01-28T10:36:29;15.55;;;8.75;;
4732;SDS011;2380;53.668;10.008;2023-01-28T10:38:59;19.65;;;8.68;;
4732;SDS011;2380;53.668;10.008;2023-01-28T10:41:28;16.15;;;8.18;;
4732;SDS011;2380;53.668;10.008;2023-01-28T10:43:58;13.30;;;6.85;;
4732;SDS011;2380;53.668;10.008;2023-01-28T10:46:31;15.77;;;9.15;;
4732;SDS011;2380;53.668;10.008;2023-01-28T10:49:03;15.05;;;8.57;;
4732;SDS011;2380;53.668;10.008;2023-01-28T10:51:36;17.05;;;9.20;;
4732;SDS011;2380;53.668;10.008;2023-01-28T10:54:16;23.77;;;9.85;;
4732;SDS011;2380;53.668;10.008;2023-01-28T10:56:48;15.07;;;9.40;;
4732;SDS011;2380;53.668;10.008;2023-01-28T10:59:19;15.05;;;7.70;;
4732;SDS011;2380;53.668;10.008;2023-01-28T11:01:53;18.75;;;8.82;;
4732;SDS011;2380;53.668;10.008;2023-01-28T11:04:26;25.20;;;9.10;;
4732;SDS011;2380;53.668;10.008;2023-01-28T11:06:57;14.98;;;7.35;;
4732;SDS011;2380;53.668;10.008;2023-01-28T11:09:28;17.02;;;7.90;;
4732;SDS011;2380;53.668;10.008;2023-01-28T11:12:09;14.10;;;7.85;;
4732;SDS011;2380;53.668;10.008;2023-01-28T11:14:48;18.30;;;10.10;;
4732;SDS011;2380;53.668;10.008;2023-01-28T11:17:21;14.70;;;7.70;;
4732;SDS011;2380;53.668;10.008;2023-01-28T11:19:52;15.60;;;8.85;;
4732;SDS011;2380;53.668;10.008;2023-01-28T11:22:23;21.00;;;9.68;;
4732;SDS011;2380;53.668;10.008;2023-01-28T11:24:57;18.55;;;8.50;;
4732;SDS011;2380;53.668;10.008;2023-01-28T11:27:27;18.80;;;9.20;;
4732;SDS011;2380;53.668;10.008;2023-01-28T11:30:00;12.30;;;6.72;;
4732;SDS011;2380;53.668;10.008;2023-01-28T11:32:33;15.15;;;8.65;;
4732;SDS011;2380;53.668;10.008;2023-01-28T11:35:04;14.18;;;8.13;;
4732;SDS011;2380;53.668;10.008;2023-01-28T11:37:33;11.80;;;7.78;;
4732;SDS011;2380;53.668;10.008;2023-01-28T11:40:13;14.85;;;8.38;;
4732;SDS011;2380;53.668;10.008;2023-01-28T11:42:47;16.90;;;8.35;;
4732;SDS011;2380;53.668;10.008;2023-01-28T11:45:19;13.90;;;8.63;;
4732;SDS011;2380;53.668;10.008;2023-01-28T11:47:59;12.85;;;7.85;;
4732;SDS011;2380;53.668;10.008;2023-01-28T11:50:38;18.48;;;8.95;;
4732;SDS011;2380;53.668;10.008;2023-01-28T11:53:16;17.48;;;9.43;;
4732;SDS011;2380;53.668;10.008;2023-01-28T11:55:59;19.33;;;10.35;;
4732;SDS011;2380;53.668;10.008;2023-01-28T11:58:40;15.75;;;9.30;;
4732;SDS011;2380;53.668;10.008;2023-01-28T12:01:16;17.65;;;7.50;;
4732;SDS011;2380;53.668;10.008;2023-01-28T12:03:57;15.77;;;8.70;;
4732;SDS011;2380;53.668;10.008;2023-01-28T12:06:41;23.35;;;9.50;;
4732;SDS011;2380;53.668;10.008;2023-01-28T12:09:23;13.95;;;7.38;;
4732;SDS011;2380;53.668;10.008;2023-01-28T12:11:58;11.82;;;5.90;;
4732;SDS011;2380;53.668;10.008;2023-01-28T12:14:50;27.02;;;7.82;;
4732;SDS011;2380;53.668;10.008;2023-01-28T12:17:36;14.35;;;8.48;;
4732;SDS011;2380;53.668;10.008;2023-01-28T12:20:17;18.13;;;8.23;;
4732;SDS011;2380;53.668;10.008;2023-01-28T12:23:04;20.63;;;8.05;;
4732;SDS011;2380;53.668;10.008;2023-01-28T12:25:46;18.50;;;10.18;;
4732;SDS011;2380;53.668;10.008;2023-01-28T12:28:29;16.63;;;8.00;;
4732;SDS011;2380;53.668;10.008;2023-01-28T12:31:25;19.42;;;9.20;;
4732;SDS011;2380;53.668;10.008;2023-01-28T12:37:08;14.40;;;7.47;;
4732;SDS011;2380;53.668;10.008;2023-01-28T12:39:45;18.70;;;7.65;;
4732;SDS011;2380;53.668;10.008;2023-01-28T12:42:26;16.52;;;9.80;;
4732;SDS011;2380;53.668;10.008;2023-01-28T12:45:01;21.10;;;9.00;;
4732;SDS011;2380;53.668;10.008;2023-01-28T12:47:39;27.27;;;11.40;;
4732;SDS011;2380;53.668;10.008;2023-01-28T12:50:12;18.23;;;10.05;;
4732;SDS011;2380;53.668;10.008;2023-01-28T12:52:48;16.23;;;9.43;;
4732;SDS011;2380;53.668;10.008;2023-01-28T12:55:19;18.23;;;10.10;;
4732;SDS011;2380;53.668;10.008;2023-01-28T12:58:04;17.73;;;9.43;;
4732;SDS011;2380;53.668;10.008;2023-01-28T13:00:35;19.08;;;9.05;;
4732;SDS011;2380;53.668;10.008;2023-01-28T13:03:10;16.80;;;8.07;;
4732;SDS011;2380;53.668;10.008;2023-01-28T13:05:43;19.35;;;9.30;;
4732;SDS011;2380;53.668;10.008;2023-01-28T13:08:20;24.00;;;9.35;;
4732;SDS011;2380;53.668;10.008;2023-01-28T13:10:51;17.33;;;9.35;;
4732;SDS011;2380;53.668;10.008;2023-01-28T13:13:27;21.98;;;9.70;;
4732;SDS011;2380;53.668;10.008;2023-01-28T13:15:58;18.98;;;10.23;;
4732;SDS011;2380;53.668;10.008;2023-01-28T13:18:30;16.90;;;7.85;;
4732;SDS011;2380;53.668;10.008;2023-01-28T13:21:01;19.75;;;9.00;;
4732;SDS011;2380;53.668;10.008;2023-01-28T13:23:41;19.03;;;9.50;;
4732;SDS011;2380;53.668;10.008;2023-01-28T13:29:06;19.55;;;11.63;;
4732;SDS011;2380;53.668;10.008;2023-01-28T13:31:38;18.10;;;10.43;;
4732;SDS011;2380;53.668;10.008;2023-01-28T13:34:24;23.65;;;11.05;;
4732;SDS011;2380;53.668;10.008;2023-01-28T13:36:55;21.60;;;11.13;;
4732;SDS011;2380;53.668;10.008;2023-01-28T13:39:29;17.80;;;8.30;;
4732;SDS011;2380;53.668;10.008;2023-01-28T13:44:54;29.25;;;13.05;;
4732;SDS011;2380;53.668;10.008;2023-01-28T13:47:25;20.73;;;10.90;;
4732;SDS011;2380;53.668;10.008;2023-01-28T13:49:57;17.30;;;9.25;;
4732;SDS011;2380;53.668;10.008;2023-01-28T13:52:29;19.83;;;9.82;;
4732;SDS011;2380;53.668;10.008;2023-01-28T13:55:03;22.67;;;11.30;;
4732;SDS011;2380;53.668;10.008;2023-01-28T13:57:42;25.05;;;12.95;;
4732;SDS011;2380;53.668;10.008;2023-01-28T14:00:34;22.40;;;12.27;;
4732;SDS011;2380;53.668;10.008;2023-01-28T14:03:14;26.13;;;11.73;;
4732;SDS011;2380;53.668;10.008;2023-01-28T14:05:59;21.88;;;10.05;;
4732;SDS011;2380;53.668;10.008;2023-01-28T14:08:48;23.77;;;11.90;;
4732;SDS011;2380;53.668;10.008;2023-01-28T14:11:39;21.73;;;10.40;;
4732;SDS011;2380;53.668;10.008;2023-01-28T14:17:26;23.85;;;12.30;;
4732;SDS011;2380;53.668;10.008;2023-01-28T14:20:06;20.87;;;10.30;;
4732;SDS011;2380;53.668;10.008;2023-01-28T14:22:43;28.73;;;11.68;;
4732;SDS011;2380;53.668;10.008;2023-01-28T14:25:13;26.63;;;10.98;;
4732;SDS011;2380;53.668;10.008;2023-01-28T14:27:48;23.52;;;11.90;;
4732;SDS011;2380;53.668;10.008;2023-01-28T14:30:21;22.97;;;10.37;;
4732;SDS011;2380;53.668;10.008;2023-01-28T14:32:54;22.52;;;12.25;;
4732;SDS011;2380;53.668;10.008;2023-01-28T14:35:24;23.80;;;11.50;;
4732;SDS011;2380;53.668;10.008;2023-01-28T14:37:56;24.67;;;12.20;;
4732;SDS011;2380;53.668;10.008;2023-01-28T14:40:27;24.08;;;12.38;;
4732;SDS011;2380;53.668;10.008;2023-01-28T14:42:59;23.17;;;11.90;;
4732;SDS011;2380;53.668;10.008;2023-01-28T14:45:35;23.47;;;10.53;;
4732;SDS011;2380;53.668;10.008;2023-01-28T14:48:13;17.70;;;9.05;;
4732;SDS011;2380;53.668;10.008;2023-01-28T14:57:11;28.27;;;10.52;;
4732;SDS011;2380;53.668;10.008;2023-01-28T14:59:49;26.85;;;14.20;;
4732;SDS011;2380;53.668;10.008;2023-01-28T15:02:21;22.45;;;10.38;;
4732;SDS011;2380;53.668;10.008;2023-01-28T15:04:52;24.10;;;12.13;;
4732;SDS011;2380;53.668;10.008;2023-01-28T15:07:23;23.77;;;12.07;;
4732;SDS011;2380;53.668;10.008;2023-01-28T15:09:59;26.95;;;12.55;;
4732;SDS011;2380;53.668;10.008;2023-01-28T15:12:32;24.52;;;10.90;;
4732;SDS011;2380;53.668;10.008;2023-01-28T15:15:13;25.58;;;10.32;;
4732;SDS011;2380;53.668;10.008;2023-01-28T15:17:46;20.13;;;9.30;;
4732;SDS011;2380;53.668;10.008;2023-01-28T15:20:17;20.73;;;8.88;;
4732;SDS011;2380;53.668;10.008;2023-01-28T15:22:48;19.77;;;9.60;;
4732;SDS011;2380;53.668;10.008;2023-01-28T15:25:18;23.40;;;10.52;;
4732;SDS011;2380;53.668;10.008;2023-01-28T15:27:49;24.25;;;10.90;;
4732;SDS011;2380;53.668;10.008;2023-01-28T15:30:24;22.65;;;10.10;;
4732;SDS011;2380;53.668;10.008;2023-01-28T15:32:55;21.55;;;10.45;;
4732;SDS011;2380;53.668;10.008;2023-01-28T15:35:26;19.02;;;9.15;;
4732;SDS011;2380;53.668;10.008;2023-01-28T15:37:56;31.70;;;14.15;;
4732;SDS011;2380;53.668;10.008;2023-01-28T15:40:25;30.88;;;13.02;;
4732;SDS011;2380;53.668;10.008;2023-01-28T15:42:55;23.08;;;11.90;;
4732;SDS011;2380;53.668;10.008;2023-01-28T15:45:28;25.08;;;10.73;;
4732;SDS011;2380;53.668;10.008;2023-01-28T15:48:01;26.17;;;10.80;;
4732;SDS011;2380;53.668;10.008;2023-01-28T15:50:34;24.92;;;10.93;;